Site:       
  Group:  
  From:      To:        
   
Sensor Name: Furnace      Latitude:-9.57320000 , Longitude:53.92290000
Please click on the Table Headers to view a Graph of the Observations.
TimeMax. Temp. (°C)Min. Temp. (°C)Mean Temp. (°C)Tot. Rain (mm)Mean Wind (kn)Max Gust (kn)Solar Rad. (J\cm2)Humidity (%)Atmos. Press. (mb)Temp. 5cm (°C)Temp. 10cm (°C)Temp. 20cm (°C)Temp. 30cm (°C)Temp. 50cm (°C)Temp. 100cm (°C)Grass Min. (°C)
25/05/2020 23:00:009.60 8.80 9.20 0.00 3.30 6.30 0.00 96.30 1030.10 13.20 13.50 13.70 13.60 13.00 12.10 -999.00
25/05/2020 22:00:0010.30 9.60 9.90 0.00 4.50 7.50 0.00 96.20 1029.60 13.60 13.90 13.80 13.60 13.00 12.10 -999.00
25/05/2020 21:00:0011.90 10.20 11.10 0.00 5.50 10.20 3.40 95.70 1028.90 14.10 14.20 13.90 13.60 13.00 12.10 -999.00
25/05/2020 20:00:0012.60 12.00 12.30 0.00 6.00 10.80 11.10 95.80 1028.10 14.40 14.40 13.90 13.60 13.00 12.10 -999.00
25/05/2020 19:00:0013.10 12.50 12.80 0.00 7.20 14.20 16.70 95.60 1027.50 14.60 14.50 13.80 13.60 13.00 12.10 -999.00
25/05/2020 18:00:0013.90 13.10 13.50 0.00 8.50 18.30 32.60 92.50 1027.00 14.70 14.40 13.70 13.50 13.00 12.10 -999.00
25/05/2020 17:00:0014.30 13.80 14.10 0.00 11.40 20.70 77.30 89.90 1026.40 14.60 14.20 13.60 13.50 13.00 12.10 -999.00
25/05/2020 16:00:0014.30 13.30 13.80 0.00 10.40 18.40 86.30 89.50 1026.20 14.20 14.00 13.60 13.50 13.00 12.10 -999.00
25/05/2020 15:00:0013.40 11.90 12.60 0.00 10.90 19.00 44.00 91.80 1026.10 14.00 13.90 13.60 13.50 13.00 12.10 -999.00
25/05/2020 14:00:0011.90 11.60 11.80 0.80 10.20 19.50 21.80 92.20 1026.10 14.00 14.00 13.60 13.40 13.00 12.10 -999.00
25/05/2020 13:00:0012.50 11.80 12.10 0.60 13.00 20.70 25.70 87.50 1026.00 14.20 14.10 13.50 13.40 13.10 12.00 -999.00
25/05/2020 12:00:0014.20 12.50 13.30 0.20 11.90 20.90 30.00 70.80 1025.60 14.40 14.10 13.40 13.30 13.10 12.00 -999.00
25/05/2020 11:00:0014.60 13.90 14.20 0.00 12.70 20.50 63.00 65.00 1025.40 14.40 14.00 13.20 13.30 13.10 12.00 -999.00
25/05/2020 10:00:0014.90 14.10 14.50 0.00 13.30 21.30 112.90 65.50 1025.40 14.00 13.50 13.10 13.30 13.10 12.00 -999.00
25/05/2020 09:00:0014.30 13.30 13.80 0.00 14.00 26.00 132.70 67.50 1025.40 13.40 13.10 13.00 13.30 13.10 12.00 -999.00
25/05/2020 08:00:0013.70 11.90 12.80 0.00 12.80 21.50 119.60 75.40 1025.80 12.70 12.60 13.10 13.40 13.20 12.00 -999.00
25/05/2020 07:00:0012.00 11.10 11.50 0.00 11.50 18.50 89.60 78.90 1026.10 12.20 12.40 13.30 13.50 13.20 12.00 -999.00
25/05/2020 06:00:0011.10 8.90 10.00 0.00 10.00 17.20 35.70 88.30 1026.00 12.00 12.50 13.50 13.60 13.20 12.00 -999.00
25/05/2020 05:00:009.50 8.40 8.90 0.00 8.90 12.90 2.70 91.60 1026.10 12.20 12.80 13.70 13.80 13.20 12.00 -999.00
25/05/2020 04:00:009.00 8.30 8.70 0.00 3.80 7.60 0.00 91.50 1026.50 12.50 13.10 14.00 13.90 13.10 12.00 -999.00
25/05/2020 03:00:009.00 8.70 8.90 0.00 3.50 8.00 0.00 90.80 1027.10 12.80 13.40 14.20 14.00 13.10 12.00 -999.00
25/05/2020 02:00:009.30 9.00 9.20 0.00 4.10 6.70 0.00 90.90 1027.60 13.20 13.80 14.50 14.20 13.10 12.00 -999.00
25/05/2020 01:00:009.50 8.90 9.20 0.00 5.40 8.50 0.00 93.20 1027.70 13.60 14.20 14.80 14.30 13.10 12.00 -999.00
25/05/2020 00:00:009.00 8.60 8.80 0.00 2.90 4.70 0.00 93.20 1027.90 14.10 14.70 15.00 14.40 13.00 12.00 5.60
24/05/2020 23:00:0010.00 9.00 9.50 0.00 3.50 6.30 0.00 93.20 1028.00 14.60 15.20 15.30 -999.00 13.00 12.00 -999.00
24/05/2020 22:00:0010.40 9.70 10.10 0.00 2.30 5.50 0.00 93.30 1028.00 15.30 15.80 15.50 -999.00 12.90 12.00 -999.00